Time;durP1;ratioP1;P1;durP2;ratioP2;P2;SDS_P1;SDS_P2;PMS_P1;PMS_P2;Temp;Humidity;BMP_temperature;BMP_pressure;BME280_temperature;BME280_humidity;BME280_pressure;Samples;Min_cycle;Max_cycle;Signal;HPM_P1;HPM_P2
2022/07/05 00:00:35;;;;;;;6.20;1.65;;;14.00;99.90;;;;;;5022215;28;20029;-74
2022/07/05 00:03:01;;;;;;;4.40;1.10;;;14.00;99.90;;;;;;5027713;28;20065;-74
2022/07/05 00:05:27;;;;;;;4.18;1.30;;;13.90;99.90;;;;;;5045296;28;20392;-74
2022/07/05 00:07:53;;;;;;;1.92;1.20;;;13.80;99.90;;;;;;5054647;28;20024;-73
2022/07/05 00:10:18;;;;;;;1.92;1.10;;;13.80;99.90;;;;;;5039953;28;20124;-74
2022/07/05 00:12:44;;;;;;;2.75;1.27;;;13.80;99.90;;;;;;5015400;28;20028;-74
2022/07/05 00:15:09;;;;;;;2.00;1.10;;;13.70;99.90;;;;;;5015222;28;20029;-74
2022/07/05 00:17:35;;;;;;;2.85;1.38;;;13.70;99.90;;;;;;5018256;28;20533;-73
2022/07/05 00:20:02;;;;;;;3.65;1.30;;;13.60;99.90;;;;;;5014125;28;21717;-74
2022/07/05 00:22:28;;;;;;;3.30;1.85;;;13.60;99.90;;;;;;5014779;28;20116;-74
2022/07/05 00:24:53;;;;;;;3.33;1.80;;;13.50;99.90;;;;;;5014190;28;20036;-73
2022/07/05 00:27:19;;;;;;;4.55;1.90;;;13.50;99.90;;;;;;5012421;28;20485;-75
2022/07/05 00:29:45;;;;;;;3.10;1.63;;;13.40;99.90;;;;;;5015434;28;20049;-73
2022/07/05 00:32:10;;;;;;;3.45;1.67;;;13.40;99.90;;;;;;5022882;28;20485;-74
2022/07/05 00:34:36;;;;;;;4.15;1.75;;;13.40;99.90;;;;;;5013874;28;20476;-74
2022/07/05 00:37:02;;;;;;;3.60;1.73;;;13.30;99.90;;;;;;5014026;28;20490;-74
2022/07/05 00:39:27;;;;;;;3.53;2.10;;;13.30;99.90;;;;;;5014174;28;20037;-74
2022/07/05 00:41:53;;;;;;;4.75;2.15;;;13.20;99.90;;;;;;5020072;28;20026;-74
2022/07/05 00:44:32;;;;;;;2.50;2.28;;;13.20;99.90;;;;;;5014498;28;20037;-76
2022/07/05 00:46:58;;;;;;;4.30;2.00;;;13.20;99.90;;;;;;5014306;28;20025;-74
2022/07/05 00:49:23;;;;;;;3.28;2.05;;;13.10;99.90;;;;;;5016729;28;20445;-74
2022/07/05 00:51:49;;;;;;;4.60;2.28;;;13.10;99.90;;;;;;5013959;28;20025;-74
2022/07/05 00:54:15;;;;;;;4.03;2.03;;;13.10;99.90;;;;;;5024523;28;20044;-74
2022/07/05 00:56:41;;;;;;;4.00;2.03;;;13.10;99.90;;;;;;5018584;28;21591;-74
2022/07/05 00:59:06;;;;;;;4.90;2.60;;;13.10;99.90;;;;;;5013931;28;20032;-74
2022/07/05 01:01:32;;;;;;;4.40;2.58;;;13.00;99.90;;;;;;5014062;28;20025;-74
2022/07/05 01:03:57;;;;;;;4.90;2.95;;;13.00;99.90;;;;;;5014237;28;20445;-75
2022/07/05 01:06:23;;;;;;;5.80;3.20;;;13.00;99.90;;;;;;5014033;28;20546;-73
2022/07/05 01:08:49;;;;;;;7.50;3.90;;;13.00;99.90;;;;;;5012939;28;20044;-74
2022/07/05 01:11:15;;;;;;;6.80;3.95;;;13.00;99.90;;;;;;5018962;28;22306;-74
2022/07/05 01:13:41;;;;;;;7.20;4.18;;;12.90;99.90;;;;;;5013962;28;20025;-74
2022/07/05 01:16:07;;;;;;;5.75;4.13;;;12.80;99.90;;;;;;5021236;28;20030;-74
2022/07/05 01:18:33;;;;;;;6.15;3.47;;;12.90;99.90;;;;;;5012970;28;20060;-74
2022/07/05 01:20:59;;;;;;;5.65;4.25;;;12.80;99.90;;;;;;5013509;28;20924;-74
2022/07/05 01:23:30;;;;;;;4.85;4.28;;;12.80;99.90;;;;;;5012528;28;20036;-74
2022/07/05 01:25:57;;;;;;;5.75;4.07;;;12.80;99.90;;;;;;5013896;28;20493;-74
2022/07/05 01:28:23;;;;;;;5.47;4.10;;;12.80;99.90;;;;;;5013416;28;20879;-75
2022/07/05 01:30:49;;;;;;;5.80;4.22;;;12.80;99.90;;;;;;5017290;28;20033;-75
2022/07/05 01:33:14;;;;;;;7.13;4.07;;;12.80;99.90;;;;;;5010687;28;20024;-75
2022/07/05 01:35:40;;;;;;;6.22;4.28;;;12.70;99.90;;;;;;5013555;28;20034;-74
2022/07/05 01:38:06;;;;;;;6.60;4.32;;;12.60;99.90;;;;;;5018697;28;20041;-75
2022/07/05 01:40:32;;;;;;;7.05;5.10;;;12.60;99.90;;;;;;5013004;28;20036;-74
2022/07/05 01:42:58;;;;;;;7.22;5.25;;;12.60;99.90;;;;;;5019094;28;20392;-74
2022/07/05 01:45:39;;;;;;;10.10;5.85;;;12.60;99.90;;;;;;5018143;28;20404;-74
2022/07/05 01:48:07;;;;;;;6.90;5.35;;;12.50;99.90;;;;;;5013338;28;20033;-74
2022/07/05 01:50:38;;;;;;;8.68;5.65;;;12.50;99.90;;;;;;5015451;28;20531;-74
2022/07/05 01:53:04;;;;;;;8.82;6.10;;;12.50;99.90;;;;;;5020128;28;20029;-75
2022/07/05 01:55:30;;;;;;;8.95;6.80;;;12.50;99.90;;;;;;5028648;28;20484;-75
2022/07/05 01:57:56;;;;;;;12.27;7.30;;;12.50;99.90;;;;;;5018342;28;20036;-74
2022/07/05 02:00:21;;;;;;;13.27;7.43;;;12.50;99.90;;;;;;5013173;28;20904;-74
2022/07/05 02:02:48;;;;;;;7.65;6.38;;;12.50;99.90;;;;;;5013266;28;20037;-74
2022/07/05 02:05:14;;;;;;;12.75;7.35;;;12.40;99.90;;;;;;5012243;28;20053;-74
2022/07/05 02:07:47;;;;;;;9.85;6.50;;;12.40;99.90;;;;;;5012076;28;20117;-74
2022/07/05 02:10:13;;;;;;;8.85;5.38;;;12.40;99.90;;;;;;5011796;28;20037;-74
2022/07/05 02:12:38;;;;;;;7.90;5.68;;;12.40;99.90;;;;;;5016433;28;20555;-74
2022/07/05 02:15:04;;;;;;;7.97;5.43;;;12.30;99.90;;;;;;5018129;28;20029;-74
2022/07/05 02:17:30;;;;;;;8.68;6.38;;;12.30;99.90;;;;;;5015261;28;20030;-74
2022/07/05 02:19:55;;;;;;;12.13;6.72;;;12.20;99.90;;;;;;5012467;28;20119;-74
2022/07/05 02:22:21;;;;;;;9.45;7.18;;;12.20;99.90;;;;;;5014088;28;20119;-73
2022/07/05 02:24:46;;;;;;;9.00;7.53;;;12.20;99.90;;;;;;5013194;28;20033;-74
2022/07/05 02:27:12;;;;;;;15.50;9.68;;;12.20;99.90;;;;;;5015687;28;20037;-74
2022/07/05 02:29:37;;;;;;;13.10;8.23;;;12.20;99.90;;;;;;5012877;28;20523;-74
2022/07/05 02:32:03;;;;;;;13.45;8.57;;;12.20;99.90;;;;;;5015683;28;20024;-75
2022/07/05 02:34:29;;;;;;;14.05;8.73;;;12.10;99.90;;;;;;5011817;28;20943;-74
2022/07/05 02:36:54;;;;;;;11.85;9.05;;;12.10;99.90;;;;;;5014089;28;20099;-74
2022/07/05 02:39:20;;;;;;;11.65;8.07;;;12.10;99.90;;;;;;5009879;28;20047;-74
2022/07/05 02:41:45;;;;;;;9.85;6.70;;;12.00;99.90;;;;;;5020218;28;20038;-73
2022/07/05 02:44:11;;;;;;;8.48;5.57;;;12.00;99.90;;;;;;5013486;28;20178;-73
2022/07/05 02:46:38;;;;;;;10.02;7.93;;;12.00;99.90;;;;;;5012239;28;20110;-75
2022/07/05 02:49:03;;;;;;;9.80;7.38;;;12.00;99.90;;;;;;5012272;28;20158;-75
2022/07/05 02:51:29;;;;;;;11.00;7.82;;;12.00;99.90;;;;;;5016432;28;20685;-74
2022/07/05 02:53:54;;;;;;;11.48;8.02;;;12.00;99.90;;;;;;5022671;28;20419;-74
2022/07/05 02:56:20;;;;;;;12.40;8.98;;;12.10;99.90;;;;;;5015402;28;20052;-73
2022/07/05 02:58:45;;;;;;;11.82;9.13;;;12.10;99.90;;;;;;5013422;28;20037;-74
2022/07/05 03:01:11;;;;;;;15.38;9.40;;;12.10;99.90;;;;;;5010744;28;20029;-74
2022/07/05 03:03:37;;;;;;;16.48;10.07;;;12.20;99.90;;;;;;5015722;28;20033;-74
2022/07/05 03:06:02;;;;;;;12.98;9.80;;;12.20;99.90;;;;;;5019706;28;20504;-74
2022/07/05 03:08:28;;;;;;;17.15;8.77;;;12.20;99.90;;;;;;5011959;28;20119;-73
2022/07/05 03:10:53;;;;;;;13.75;9.23;;;12.30;99.90;;;;;;5011950;28;20042;-73
2022/07/05 03:13:19;;;;;;;11.32;8.80;;;12.30;99.90;;;;;;5010688;28;20121;-73
2022/07/05 03:15:44;;;;;;;9.70;7.75;;;12.40;99.90;;;;;;5012011;28;20112;-73
2022/07/05 03:18:10;;;;;;;14.85;8.57;;;12.40;99.90;;;;;;5016016;28;20282;-74
2022/07/05 03:20:35;;;;;;;11.73;7.70;;;12.50;99.90;;;;;;5011831;28;20071;-74
2022/07/05 03:23:01;;;;;;;9.20;6.93;;;12.50;99.90;;;;;;5012081;28;20461;-73
2022/07/05 03:25:26;;;;;;;12.80;8.90;;;12.60;99.90;;;;;;5012362;28;20057;-73
2022/07/05 03:27:52;;;;;;;19.00;9.35;;;12.60;99.90;;;;;;5012190;28;20098;-74
2022/07/05 03:30:17;;;;;;;12.88;9.38;;;12.60;99.90;;;;;;5015065;28;20054;-74
2022/07/05 03:32:43;;;;;;;12.65;9.40;;;12.70;99.90;;;;;;5022166;28;20036;-73
2022/07/05 03:35:09;;;;;;;14.63;10.30;;;12.70;99.90;;;;;;5013897;28;20084;-74
2022/07/05 03:37:35;;;;;;;14.80;9.90;;;12.80;99.90;;;;;;5013813;28;20836;-73
2022/07/05 03:40:00;;;;;;;14.80;10.63;;;12.80;99.90;;;;;;5013799;28;20064;-74
2022/07/05 03:42:26;;;;;;;12.20;9.15;;;12.90;99.90;;;;;;5023209;28;20986;-74
2022/07/05 03:44:51;;;;;;;14.15;10.25;;;12.90;99.90;;;;;;5018573;28;20106;-74
2022/07/05 03:47:17;;;;;;;16.90;11.85;;;12.90;99.90;;;;;;5017000;28;20489;-73
2022/07/05 03:49:42;;;;;;;16.50;11.00;;;13.00;99.90;;;;;;5019354;28;20045;-74
2022/07/05 03:52:08;;;;;;;14.90;11.45;;;13.00;99.90;;;;;;5016327;28;20079;-74
2022/07/05 03:54:33;;;;;;;15.60;11.63;;;13.10;99.90;;;;;;5031010;28;20097;-73
2022/07/05 03:56:59;;;;;;;14.18;10.80;;;13.10;99.90;;;;;;5015160;28;20509;-74
2022/07/05 03:59:24;;;;;;;17.23;11.48;;;13.10;99.90;;;;;;5017081;28;20091;-73
2022/07/05 04:01:50;;;;;;;14.02;10.40;;;13.20;99.90;;;;;;5016023;28;20045;-74
2022/07/05 04:04:15;;;;;;;15.23;10.50;;;13.30;99.90;;;;;;5015456;28;20033;-74
2022/07/05 04:06:41;;;;;;;16.83;11.23;;;13.30;99.90;;;;;;5014164;28;20120;-74
2022/07/05 04:09:06;;;;;;;15.77;10.85;;;13.30;99.90;;;;;;5013039;28;21943;-74
2022/07/05 04:11:32;;;;;;;14.57;11.32;;;13.40;99.90;;;;;;5015931;28;20033;-73
2022/07/05 04:13:58;;;;;;;12.65;11.35;;;13.40;99.90;;;;;;5014890;28;20030;-74
2022/07/05 04:16:23;;;;;;;16.40;11.90;;;13.40;99.90;;;;;;5015448;28;20036;-74
2022/07/05 04:18:49;;;;;;;15.18;11.32;;;13.50;99.90;;;;;;5011273;28;20029;-74
2022/07/05 04:21:14;;;;;;;15.35;11.57;;;13.50;99.90;;;;;;5011741;28;20504;-75
2022/07/05 04:23:40;;;;;;;18.15;12.55;;;13.60;99.90;;;;;;5013412;28;20489;-74
2022/07/05 04:26:05;;;;;;;19.67;12.70;;;13.60;99.90;;;;;;5016021;28;20044;-73
2022/07/05 04:28:31;;;;;;;19.67;13.07;;;13.70;99.90;;;;;;5021895;28;20056;-73
2022/07/05 04:30:57;;;;;;;16.58;12.80;;;13.70;99.90;;;;;;5020997;28;20489;-74
2022/07/05 04:33:24;;;;;;;18.17;13.50;;;13.80;99.90;;;;;;5020254;28;20535;-74
2022/07/05 04:35:49;;;;;;;19.50;13.32;;;13.90;99.90;;;;;;5019560;28;20029;-76
2022/07/05 04:38:15;;;;;;;16.00;12.57;;;13.90;99.90;;;;;;5021680;28;20540;-74
2022/07/05 04:40:40;;;;;;;16.15;13.13;;;14.00;99.90;;;;;;5019269;28;20394;-73
2022/07/05 04:43:06;;;;;;;18.88;13.93;;;14.10;99.90;;;;;;5021742;28;20052;-74
2022/07/05 04:45:32;;;;;;;16.15;13.45;;;14.20;99.90;;;;;;5019756;28;20535;-73
2022/07/05 04:47:58;;;;;;;16.33;13.57;;;14.20;99.90;;;;;;5021362;28;20033;-73
2022/07/05 04:50:23;;;;;;;18.48;13.05;;;14.30;99.90;;;;;;5020157;28;20477;-74
2022/07/05 04:52:49;;;;;;;19.27;14.20;;;14.30;99.90;;;;;;5019444;28;20082;-74
2022/07/05 04:55:14;;;;;;;18.92;15.00;;;14.40;99.90;;;;;;5019974;28;20788;-74
2022/07/05 04:57:42;;;;;;;18.45;14.02;;;14.50;99.90;;;;;;5019065;28;20033;-74
2022/07/05 05:00:09;;;;;;;16.95;13.93;;;14.60;99.90;;;;;;5026773;28;20155;-74
2022/07/05 05:02:35;;;;;;;17.88;14.77;;;14.70;99.90;;;;;;5019978;28;20123;-74
2022/07/05 05:05:01;;;;;;;19.92;15.15;;;14.80;99.90;;;;;;5022805;28;20481;-74
2022/07/05 05:07:26;;;;;;;18.77;15.55;;;14.90;99.90;;;;;;5018709;28;20056;-73
2022/07/05 05:09:52;;;;;;;21.90;16.48;;;15.00;99.90;;;;;;5019547;28;20055;-74
2022/07/05 05:12:18;;;;;;;19.13;15.82;;;15.10;99.90;;;;;;5018408;28;20027;-74
2022/07/05 05:14:43;;;;;;;19.85;15.55;;;15.20;99.90;;;;;;5020842;28;20526;-74
2022/07/05 05:17:09;;;;;;;23.70;17.50;;;15.30;99.90;;;;;;5021551;28;20033;-73
2022/07/05 05:19:35;;;;;;;20.65;17.20;;;15.30;99.90;;;;;;5032708;28;20121;-74
2022/07/05 05:22:00;;;;;;;24.90;17.17;;;15.40;99.90;;;;;;5028549;28;20025;-74
2022/07/05 05:24:26;;;;;;;24.52;16.98;;;15.50;99.90;;;;;;5016707;28;20131;-74
2022/07/05 05:26:52;;;;;;;23.67;17.17;;;15.60;99.90;;;;;;5020415;28;20501;-75
2022/07/05 05:29:18;;;;;;;24.60;17.50;;;15.70;99.90;;;;;;5016308;28;20041;-74
2022/07/05 05:31:44;;;;;;;22.98;17.70;;;15.80;99.90;;;;;;5020807;28;22516;-75
2022/07/05 05:34:09;;;;;;;24.92;17.27;;;16.00;99.90;;;;;;5020101;28;20037;-73
2022/07/05 05:36:36;;;;;;;24.00;16.33;;;16.00;99.90;;;;;;5014088;28;20065;-74
2022/07/05 05:39:02;;;;;;;26.25;17.67;;;16.10;99.90;;;;;;5014858;28;20107;-74
2022/07/05 05:41:27;;;;;;;21.80;16.77;;;16.20;99.90;;;;;;5015116;28;20045;-74
2022/07/05 05:43:53;;;;;;;20.85;16.80;;;16.30;99.90;;;;;;5017783;28;20560;-74
2022/07/05 05:46:18;;;;;;;22.25;16.02;;;16.40;99.90;;;;;;5015862;28;20056;-74
2022/07/05 05:48:44;;;;;;;19.10;15.10;;;16.50;99.90;;;;;;5032962;28;20029;-74
2022/07/05 05:51:09;;;;;;;20.73;15.77;;;16.60;99.90;;;;;;5035366;28;20037;-75
2022/07/05 05:53:35;;;;;;;18.98;14.20;;;16.70;99.90;;;;;;5038869;28;20030;-75
2022/07/05 05:56:00;;;;;;;18.83;14.13;;;16.80;99.90;;;;;;5044782;28;20503;-74
2022/07/05 05:58:26;;;;;;;17.10;13.65;;;16.90;99.90;;;;;;5037335;28;20033;-74
2022/07/05 06:00:52;;;;;;;19.33;13.57;;;17.10;99.90;;;;;;5047110;28;20061;-73
2022/07/05 06:03:22;;;;;;;20.52;13.85;;;17.20;99.90;;;;;;5045734;28;20032;-73
2022/07/05 06:05:48;;;;;;;15.63;11.98;;;17.30;99.90;;;;;;5051336;28;20112;-74
2022/07/05 06:08:14;;;;;;;20.05;13.23;;;17.40;99.90;;;;;;5032686;28;20633;-75
2022/07/05 06:10:40;;;;;;;18.35;12.32;;;17.50;99.90;;;;;;5042619;28;20036;-75
2022/07/05 06:13:08;;;;;;;18.15;12.57;;;17.60;99.90;;;;;;5050897;28;20074;-75
2022/07/05 06:15:34;;;;;;;18.38;12.43;;;17.60;99.90;;;;;;5033317;28;20086;-76
2022/07/05 06:18:00;;;;;;;16.77;12.40;;;17.70;99.90;;;;;;5041830;28;20028;-74
2022/07/05 06:20:28;;;;;;;13.55;10.20;;;17.60;99.90;;;;;;5034651;28;20034;-75
2022/07/05 06:22:55;;;;;;;17.45;11.13;;;17.60;99.90;;;;;;5033982;28;20393;-74
2022/07/05 06:25:21;;;;;;;13.48;10.20;;;17.60;99.90;;;;;;5035771;28;20029;-75
2022/07/05 06:27:54;;;;;;;12.95;10.27;;;17.60;99.90;;;;;;5044616;28;20032;-73
2022/07/05 06:30:21;;;;;;;13.02;10.45;;;17.60;99.90;;;;;;5037588;28;20037;-74
2022/07/05 06:32:49;;;;;;;15.30;10.65;;;17.70;99.90;;;;;;5031423;28;20052;-75
2022/07/05 06:35:15;;;;;;;14.00;10.23;;;17.80;99.90;;;;;;5037473;28;20397;-75
2022/07/05 06:37:48;;;;;;;9.98;8.32;;;17.90;99.90;;;;;;5033735;28;20138;-75
2022/07/05 06:40:22;;;;;;;10.88;8.43;;;18.10;99.90;;;;;;5036984;28;20033;-75
2022/07/05 06:42:48;;;;;;;11.10;6.80;;;18.20;99.90;;;;;;5041730;28;20055;-75
2022/07/05 06:45:14;;;;;;;9.55;6.13;;;18.20;99.90;;;;;;5038357;28;20031;-75
2022/07/05 06:47:39;;;;;;;10.05;7.50;;;18.20;99.90;;;;;;5040061;28;20388;-75
2022/07/05 06:50:06;;;;;;;9.15;7.05;;;18.40;99.90;;;;;;5038207;28;20064;-75
2022/07/05 06:52:32;;;;;;;11.55;6.97;;;18.50;99.90;;;;;;5033828;28;20032;-75
2022/07/05 06:54:59;;;;;;;11.25;7.22;;;18.70;99.90;;;;;;5031600;28;20566;-75
2022/07/05 06:57:25;;;;;;;12.63;7.20;;;19.00;99.90;;;;;;5032037;28;20393;-75
2022/07/05 06:59:51;;;;;;;11.13;7.30;;;19.20;99.90;;;;;;5044559;28;20108;-76
2022/07/05 07:02:17;;;;;;;6.95;5.95;;;19.40;99.90;;;;;;5033052;28;20087;-76
2022/07/05 07:04:43;;;;;;;8.95;6.97;;;19.50;99.90;;;;;;5049802;28;20104;-75
2022/07/05 07:09:56;;;;;;;8.70;6.53;;;19.80;99.90;;;;;;5040317;28;20102;-75
2022/07/05 07:12:22;;;;;;;9.88;5.80;;;20.00;99.90;;;;;;5042511;28;20242;-74
2022/07/05 07:14:47;;;;;;;6.63;5.43;;;20.10;99.90;;;;;;5033552;28;20068;-74
2022/07/05 07:17:13;;;;;;;7.75;5.82;;;20.10;99.90;;;;;;5031220;28;20017;-74
2022/07/05 07:19:38;;;;;;;5.63;4.25;;;20.20;99.90;;;;;;5036194;28;20035;-74
2022/07/05 07:22:04;;;;;;;6.82;4.82;;;20.20;99.90;;;;;;5032138;28;20029;-75
2022/07/05 07:24:29;;;;;;;6.97;4.32;;;20.30;99.90;;;;;;5031842;28;20037;-73
2022/07/05 07:27:04;;;;;;;10.25;4.95;;;20.40;99.90;;;;;;5034587;28;20473;-74
2022/07/05 07:29:34;;;;;;;5.63;4.40;;;20.40;99.90;;;;;;5033322;28;20077;-75
2022/07/05 07:32:01;;;;;;;7.60;5.50;;;20.40;99.90;;;;;;5030885;28;20034;-73
2022/07/05 07:34:27;;;;;;;6.72;4.43;;;20.40;99.90;;;;;;5043751;28;20021;-74
2022/07/05 07:36:54;;;;;;;6.05;4.20;;;20.50;99.90;;;;;;5035225;28;20436;-73
2022/07/05 07:39:20;;;;;;;7.35;4.07;;;20.50;99.90;;;;;;5034010;28;20040;-73
2022/07/05 07:41:47;;;;;;;9.68;3.70;;;20.60;99.90;;;;;;5046147;28;20393;-73
2022/07/05 07:44:12;;;;;;;5.70;4.20;;;20.80;99.90;;;;;;5031653;28;20037;-74
2022/07/05 07:46:41;;;;;;;6.65;3.05;;;20.90;99.80;;;;;;5042008;28;20041;-75
2022/07/05 07:49:08;;;;;;;5.47;2.90;;;21.10;99.50;;;;;;5030513;28;20052;-75
2022/07/05 07:51:34;;;;;;;7.15;4.05;;;21.30;99.20;;;;;;5046269;28;20393;-73
2022/07/05 07:53:59;;;;;;;6.18;4.28;;;21.50;99.00;;;;;;5044656;28;20026;-74
2022/07/05 07:56:25;;;;;;;5.05;3.95;;;21.60;98.50;;;;;;5047009;28;20499;-74
2022/07/05 07:58:51;;;;;;;5.45;4.57;;;21.80;98.50;;;;;;5042239;28;20386;-74
2022/07/05 08:01:17;;;;;;;9.85;5.25;;;21.90;98.10;;;;;;5042162;28;20033;-75
2022/07/05 08:03:43;;;;;;;5.68;5.10;;;21.90;97.80;;;;;;5050767;28;20033;-74
2022/07/05 08:06:10;;;;;;;9.80;5.50;;;22.00;97.60;;;;;;5048736;28;20029;-75
2022/07/05 08:08:38;;;;;;;7.60;4.50;;;22.10;97.10;;;;;;5030677;28;20060;-75
2022/07/05 08:11:04;;;;;;;8.02;5.63;;;22.30;96.70;;;;;;5030039;28;20525;-75
2022/07/05 08:13:30;;;;;;;8.90;4.57;;;22.30;96.40;;;;;;5030516;28;20038;-73
2022/07/05 08:15:55;;;;;;;6.22;5.30;;;22.30;96.40;;;;;;5033633;28;20060;-75
2022/07/05 08:23:50;;;;;;;5.43;4.53;;;22.40;95.90;;;;;;5034558;28;20044;-74
2022/07/05 08:26:15;;;;;;;5.85;4.13;;;22.60;95.80;;;;;;5039514;28;20017;-74
2022/07/05 08:28:41;;;;;;;6.85;4.88;;;22.60;95.80;;;;;;5038923;28;20040;-74
2022/07/05 08:31:06;;;;;;;6.20;4.32;;;22.70;95.70;;;;;;5036954;28;20033;-76
2022/07/05 08:33:35;;;;;;;7.93;5.22;;;22.60;95.50;;;;;;5039550;28;20397;-75
2022/07/05 08:36:00;;;;;;;5.63;4.68;;;22.60;95.20;;;;;;5039004;28;20024;-75
2022/07/05 08:38:26;;;;;;;8.48;4.95;;;22.60;95.40;;;;;;5037749;28;20428;-75
2022/07/05 08:40:54;;;;;;;7.63;4.88;;;22.60;95.50;;;;;;5037609;28;20025;-75
2022/07/05 08:43:21;;;;;;;10.27;4.57;;;22.90;95.20;;;;;;5035540;28;20033;-75
2022/07/05 08:45:48;;;;;;;8.18;4.25;;;23.10;94.80;;;;;;5037620;28;20030;-74
2022/07/05 08:48:16;;;;;;;7.03;4.70;;;23.20;94.60;;;;;;5040929;28;20053;-74
2022/07/05 08:50:43;;;;;;;8.95;4.90;;;23.20;94.40;;;;;;5040704;28;20041;-75
2022/07/05 08:53:09;;;;;;;10.45;4.72;;;23.30;94.20;;;;;;5033937;28;20029;-75
2022/07/05 08:55:35;;;;;;;7.13;5.47;;;23.40;93.60;;;;;;5034436;28;20075;-76
2022/07/05 08:58:01;;;;;;;6.05;4.22;;;23.40;93.30;;;;;;5037489;28;20481;-74
2022/07/05 09:00:27;;;;;;;7.30;4.85;;;23.30;93.40;;;;;;5040870;28;20447;-74
2022/07/05 09:02:54;;;;;;;5.63;3.63;;;23.10;92.90;;;;;;5037736;28;20022;-74
2022/07/05 09:05:23;;;;;;;6.57;3.97;;;22.90;92.70;;;;;;5047756;28;20029;-75
2022/07/05 09:07:58;;;;;;;6.40;4.20;;;22.70;92.80;;;;;;5052095;28;20025;-74
2022/07/05 09:10:26;;;;;;;5.03;2.95;;;22.60;93.20;;;;;;5052664;28;20488;-74
2022/07/05 09:12:52;;;;;;;5.10;3.38;;;22.50;93.00;;;;;;5053136;28;20107;-75
2022/07/05 09:15:17;;;;;;;3.65;2.42;;;22.30;93.00;;;;;;5050183;28;20453;-74
2022/07/05 09:17:47;;;;;;;4.32;2.42;;;22.10;93.10;;;;;;5034044;28;20025;-74
2022/07/05 09:20:15;;;;;;;5.95;2.55;;;22.00;93.40;;;;;;5037647;28;20556;-76
2022/07/05 09:22:49;;;;;;;6.53;2.65;;;21.80;93.70;;;;;;5036094;28;20049;-76
2022/07/05 09:25:29;;;;;;;6.50;3.17;;;21.70;93.70;;;;;;5032097;28;20030;-75
2022/07/05 09:27:57;;;;;;;5.25;2.72;;;21.50;94.00;;;;;;5033692;28;20079;-75
2022/07/05 09:30:25;;;;;;;4.85;2.80;;;21.40;94.40;;;;;;5032120;28;20053;-75
2022/07/05 09:33:19;;;;;;;6.75;3.15;;;21.40;94.60;;;;;;5033010;28;20021;-74
2022/07/05 09:35:57;;;;;;;3.65;2.30;;;21.30;94.70;;;;;;5032470;28;20025;-74
2022/07/05 09:38:26;;;;;;;3.33;2.28;;;21.20;94.80;;;;;;5033788;28;20091;-75
2022/07/05 09:40:58;;;;;;;6.30;2.75;;;21.20;94.90;;;;;;5031586;28;20030;-75
2022/07/05 09:43:25;;;;;;;4.50;2.05;;;21.30;95.00;;;;;;5036480;28;20158;-74
2022/07/05 09:45:55;;;;;;;4.40;2.17;;;21.40;95.30;;;;;;5035272;28;20380;-74
2022/07/05 09:48:21;;;;;;;6.38;2.08;;;21.50;95.00;;;;;;5042918;28;20021;-75
2022/07/05 09:50:48;;;;;;;3.85;1.77;;;21.70;95.10;;;;;;5051250;28;20040;-74
2022/07/05 09:53:14;;;;;;;5.43;2.10;;;21.90;94.60;;;;;;5040778;28;20049;-74
2022/07/05 09:55:40;;;;;;;4.28;2.28;;;22.10;94.40;;;;;;5031990;28;20052;-75
2022/07/05 09:58:06;;;;;;;6.38;2.90;;;22.30;94.40;;;;;;5046576;28;20060;-75
2022/07/05 10:00:31;;;;;;;7.13;2.45;;;22.50;93.80;;;;;;5050344;28;20033;-74
2022/07/05 10:03:01;;;;;;;8.50;2.50;;;22.50;93.40;;;;;;5043979;28;20029;-74
2022/07/05 10:05:31;;;;;;;5.90;2.42;;;22.50;93.50;;;;;;5038783;28;20551;-74
2022/07/05 10:07:59;;;;;;;4.97;2.30;;;22.50;93.20;;;;;;5034567;28;20064;-74
2022/07/05 10:10:27;;;;;;;3.78;1.52;;;22.60;93.20;;;;;;5040168;28;20436;-74
2022/07/05 10:12:58;;;;;;;5.25;1.60;;;22.70;93.40;;;;;;5046268;28;20049;-74
2022/07/05 10:15:30;;;;;;;3.47;1.10;;;22.80;93.20;;;;;;5046234;28;20033;-74
2022/07/05 10:18:04;;;;;;;5.50;1.45;;;22.80;93.00;;;;;;5038481;28;20017;-74
2022/07/05 10:20:40;;;;;;;1.88;0.93;;;22.90;92.60;;;;;;5049564;28;20029;-74
2022/07/05 10:23:17;;;;;;;3.78;1.55;;;23.00;92.00;;;;;;5040343;28;20044;-74
2022/07/05 10:25:48;;;;;;;4.45;1.00;;;22.80;91.60;;;;;;5039625;28;20026;-74
2022/07/05 10:28:16;;;;;;;4.15;1.00;;;22.60;91.70;;;;;;5044412;28;20022;-74
2022/07/05 10:30:45;;;;;;;5.80;1.02;;;22.50;92.00;;;;;;5033675;28;20040;-74
2022/07/05 10:33:14;;;;;;;3.30;1.45;;;22.40;92.20;;;;;;5032727;28;20119;-74
2022/07/05 10:35:42;;;;;;;7.05;1.70;;;22.30;92.50;;;;;;5031705;28;20068;-74
2022/07/05 10:38:10;;;;;;;4.22;1.10;;;22.10;93.00;;;;;;5030385;28;20060;-74
2022/07/05 10:40:36;;;;;;;3.83;1.80;;;21.90;93.40;;;;;;5031357;28;20033;-74
2022/07/05 10:43:03;;;;;;;5.60;1.85;;;21.90;93.60;;;;;;5037502;28;20470;-74
2022/07/05 10:45:34;;;;;;;4.28;1.83;;;21.80;94.00;;;;;;5031818;28;20077;-74
2022/07/05 10:48:22;;;;;;;4.95;1.75;;;21.90;94.20;;;;;;5031574;28;20474;-74
2022/07/05 10:50:52;;;;;;;7.05;1.83;;;22.30;94.00;;;;;;5039746;28;20048;-74
2022/07/05 10:53:25;;;;;;;3.67;1.58;;;22.60;93.30;;;;;;5049705;28;20108;-75
2022/07/05 10:56:04;;;;;;;2.80;1.15;;;22.80;92.70;;;;;;5042104;28;20037;-74
2022/07/05 10:58:41;;;;;;;2.92;1.27;;;22.90;92.60;;;;;;5031352;28;20026;-74
2022/07/05 11:01:14;;;;;;;4.80;2.00;;;22.90;92.30;;;;;;5031174;28;20033;-74
2022/07/05 11:03:48;;;;;;;3.53;1.60;;;22.90;91.80;;;;;;5044301;28;20074;-74
2022/07/05 11:06:31;;;;;;;5.13;1.63;;;23.00;91.60;;;;;;5033090;28;20067;-74
2022/07/05 11:08:59;;;;;;;2.22;1.00;;;23.10;91.60;;;;;;5048264;28;20025;-74
2022/07/05 11:11:42;;;;;;;2.45;1.70;;;23.30;90.50;;;;;;5042326;28;20033;-74
2022/07/05 11:14:44;;;;;;;3.90;1.25;;;23.50;90.00;;;;;;5043546;28;20033;-74
2022/07/05 11:17:12;;;;;;;3.85;0.93;;;23.50;88.40;;;;;;5045412;28;20037;-74
2022/07/05 11:20:09;;;;;;;3.83;0.80;;;23.40;87.70;;;;;;5036875;28;20064;-74
2022/07/05 11:22:37;;;;;;;4.07;0.70;;;23.40;86.80;;;;;;5030950;28;20056;-75
2022/07/05 11:25:04;;;;;;;3.58;1.00;;;23.40;85.40;;;;;;5042090;28;20021;-74
2022/07/05 11:27:32;;;;;;;2.33;0.55;;;23.40;85.40;;;;;;5049713;28;20037;-73
2022/07/05 11:29:57;;;;;;;1.77;0.40;;;23.40;85.70;;;;;;5051264;28;20032;-75
2022/07/05 11:32:38;;;;;;;1.35;0.43;;;23.60;84.50;;;;;;5033672;28;20038;-72
2022/07/05 11:35:15;;;;;;;1.35;0.40;;;23.80;81.20;;;;;;5034074;28;20501;-74
2022/07/05 11:38:04;;;;;;;2.97;0.50;;;24.00;81.00;;;;;;5034450;28;20073;-75
2022/07/05 11:40:32;;;;;;;2.50;0.65;;;24.20;81.10;;;;;;5048118;28;20029;-75
2022/07/05 11:42:58;;;;;;;1.80;0.70;;;24.20;80.30;;;;;;5042111;28;20515;-74
2022/07/05 11:45:24;;;;;;;1.70;0.50;;;24.20;79.80;;;;;;5042236;28;20028;-75
2022/07/05 11:47:55;;;;;;;4.97;0.60;;;24.20;79.50;;;;;;5045975;28;20037;-75
2022/07/05 11:50:32;;;;;;;2.38;0.60;;;24.20;79.40;;;;;;5035377;28;20045;-75
2022/07/05 11:52:59;;;;;;;3.70;0.50;;;24.20;79.20;;;;;;5047211;28;20056;-75
2022/07/05 11:55:27;;;;;;;3.25;0.35;;;24.10;78.50;;;;;;5052544;28;20044;-75
2022/07/05 11:57:54;;;;;;;4.95;0.30;;;24.00;79.00;;;;;;5051070;28;20025;-75
2022/07/05 12:00:28;;;;;;;1.25;0.30;;;24.00;78.40;;;;;;5033675;28;20033;-75
2022/07/05 12:02:54;;;;;;;1.98;0.40;;;23.90;77.90;;;;;;5054371;28;20037;-76
2022/07/05 12:05:19;;;;;;;1.98;0.45;;;23.80;77.50;;;;;;5054167;28;20339;-76
2022/07/05 12:07:50;;;;;;;2.45;0.40;;;23.70;78.00;;;;;;5053114;28;20033;-75
2022/07/05 12:13:07;;;;;;;2.75;0.35;;;23.90;76.10;;;;;;5046428;28;20066;-75
2022/07/05 12:15:34;;;;;;;2.92;0.43;;;23.90;76.00;;;;;;5052185;28;20029;-75
2022/07/05 12:18:04;;;;;;;1.08;0.40;;;23.80;75.30;;;;;;5039338;28;20030;-75
2022/07/05 12:20:32;;;;;;;0.90;0.30;;;23.70;75.70;;;;;;5034481;28;20034;-75
2022/07/05 12:22:59;;;;;;;2.42;0.40;;;23.80;75.40;;;;;;5052300;28;20036;-75
2022/07/05 12:25:25;;;;;;;13.15;1.23;;;23.80;74.10;;;;;;5053193;28;20115;-75
2022/07/05 12:27:53;;;;;;;81.78;8.20;;;23.70;74.00;;;;;;5048475;28;20576;-75
2022/07/05 12:30:20;;;;;;;8.30;1.25;;;23.70;74.50;;;;;;5034409;28;20053;-75
2022/07/05 12:33:04;;;;;;;3.83;1.17;;;23.90;74.90;;;;;;5028581;28;20034;-76
2022/07/05 12:35:30;;;;;;;17.50;1.85;;;23.90;74.60;;;;;;5041555;28;20032;-76
2022/07/05 12:38:18;;;;;;;6.18;0.50;;;23.80;74.60;;;;;;5047294;28;20037;-75
2022/07/05 12:40:45;;;;;;;3.50;0.30;;;23.80;75.10;;;;;;5040755;28;20034;-75
2022/07/05 12:43:13;;;;;;;8.48;0.50;;;24.00;75.90;;;;;;5039029;28;20538;-76
2022/07/05 12:45:59;;;;;;;2.22;0.30;;;24.10;74.70;;;;;;5031213;28;20512;-76
2022/07/05 12:48:32;;;;;;;3.08;0.40;;;24.00;74.30;;;;;;5025196;28;20033;-75
2022/07/05 12:50:58;;;;;;;3.63;0.30;;;23.80;74.00;;;;;;5033197;28;20071;-74
2022/07/05 12:58:56;;;;;;;1.35;0.30;;;24.00;73.80;;;;;;5038143;28;20145;-75